createdAt,value
2023-03-29T00:02:32.994Z,66.55
2023-03-29T00:05:04.073Z,66.99
2023-03-29T00:07:33.413Z,66.72
2023-03-29T00:10:01.390Z,66.69
2023-03-29T00:12:28.573Z,66.97
2023-03-29T00:14:55.346Z,68.00
2023-03-29T00:17:22.059Z,67.66
2023-03-29T00:19:49.192Z,68.03
2023-03-29T00:22:15.977Z,68.31
2023-03-29T00:24:42.652Z,67.77
2023-03-29T00:27:09.348Z,67.92
2023-03-29T00:29:36.041Z,67.87
2023-03-29T00:32:02.659Z,68.17
2023-03-29T00:34:31.957Z,67.89
2023-03-29T00:36:58.826Z,67.97
2023-03-29T00:39:26.416Z,67.93
2023-03-29T00:41:53.215Z,67.78
2023-03-29T00:44:55.470Z,67.39
2023-03-29T00:47:42.263Z,68.51
2023-03-29T00:50:12.476Z,68.71
2023-03-29T00:52:39.580Z,68.96
2023-03-29T00:55:10.163Z,68.43
2023-03-29T00:57:37.422Z,67.58
2023-03-29T01:00:05.167Z,67.02
2023-03-29T01:02:34.529Z,66.60
2023-03-29T01:05:07.188Z,66.46
2023-03-29T01:07:48.174Z,66.25
2023-03-29T01:10:27.309Z,66.33
2023-03-29T01:12:56.715Z,66.98
2023-03-29T01:15:25.348Z,66.68
2023-03-29T01:17:53.907Z,66.60
2023-03-29T01:20:43.776Z,66.16
2023-03-29T01:23:44.044Z,66.71
2023-03-29T01:26:27.154Z,67.09
2023-03-29T01:29:14.347Z,67.85
2023-03-29T01:31:44.492Z,67.20
2023-03-29T01:34:14.731Z,68.49
2023-03-29T01:36:54.798Z,68.82
2023-03-29T01:39:22.099Z,68.23
2023-03-29T01:42:23.901Z,67.15
2023-03-29T01:45:06.551Z,67.62
2023-03-29T01:47:47.835Z,68.20
2023-03-29T01:50:36.313Z,67.41
2023-03-29T01:53:24.814Z,66.74
2023-03-29T01:56:00.519Z,66.50
2023-03-29T01:58:29.500Z,66.68
2023-03-29T02:00:56.215Z,66.77
2023-03-29T02:03:24.600Z,66.61
2023-03-29T02:05:51.572Z,66.42
2023-03-29T02:08:18.320Z,66.16
2023-03-29T02:10:45.055Z,66.64
2023-03-29T02:13:11.769Z,66.27
2023-03-29T02:15:38.677Z,65.51
2023-03-29T02:18:06.698Z,65.38
2023-03-29T02:20:39.210Z,65.13
2023-03-29T02:23:23.482Z,65.36
2023-03-29T02:25:50.741Z,65.46
2023-03-29T02:28:17.748Z,65.20
2023-03-29T02:30:53.566Z,65.64
2023-03-29T02:33:54.232Z,65.09
2023-03-29T02:36:28.180Z,64.94
2023-03-29T02:38:54.894Z,64.94
2023-03-29T02:41:22.454Z,64.80
2023-03-29T02:43:49.179Z,64.96
2023-03-29T02:46:16.156Z,65.94
2023-03-29T02:48:42.890Z,65.82
2023-03-29T02:51:18.014Z,65.56
2023-03-29T02:54:03.209Z,65.73
2023-03-29T02:56:29.981Z,66.42
2023-03-29T02:58:56.576Z,66.59
2023-03-29T03:01:23.325Z,66.12
2023-03-29T03:03:50.844Z,65.34
2023-03-29T03:06:18.371Z,65.25
2023-03-29T03:08:45.058Z,65.82
2023-03-29T03:11:11.728Z,65.49
2023-03-29T03:13:38.415Z,65.02
2023-03-29T03:16:05.443Z,66.04
2023-03-29T03:18:32.670Z,65.85
2023-03-29T03:21:01.878Z,65.75
2023-03-29T03:23:29.573Z,65.31
2023-03-29T03:25:56.594Z,65.34
2023-03-29T03:28:27.446Z,64.99
2023-03-29T03:30:54.390Z,65.66
2023-03-29T03:33:21.357Z,65.44
2023-03-29T03:35:48.084Z,65.77
2023-03-29T03:38:15.277Z,65.44
2023-03-29T03:40:42.641Z,65.63
2023-03-29T03:43:09.391Z,65.44
2023-03-29T03:45:36.094Z,66.37
2023-03-29T03:48:02.869Z,66.46
2023-03-29T03:50:29.630Z,66.20
2023-03-29T03:52:56.473Z,65.39
2023-03-29T03:55:24.009Z,66.14
2023-03-29T03:57:52.025Z,65.55
2023-03-29T04:00:22.885Z,66.12
2023-03-29T04:02:50.782Z,66.33
2023-03-29T04:05:17.536Z,66.41
2023-03-29T04:07:44.319Z,66.20
2023-03-29T04:10:11.171Z,66.30
2023-03-29T04:12:38.124Z,66.95
2023-03-29T04:15:05.313Z,66.26
2023-03-29T04:17:32.070Z,66.66
2023-03-29T04:19:58.766Z,67.59
2023-03-29T04:22:25.775Z,67.16
2023-03-29T04:24:52.519Z,67.09
2023-03-29T04:27:19.261Z,67.48
2023-03-29T04:29:46.416Z,68.00
2023-03-29T04:32:13.095Z,68.77
2023-03-29T04:34:39.843Z,68.71
2023-03-29T04:37:10.684Z,68.73
2023-03-29T04:39:37.771Z,68.57
2023-03-29T04:42:05.270Z,68.27
2023-03-29T04:44:35.111Z,68.02
2023-03-29T04:47:01.776Z,67.20
2023-03-29T04:49:29.076Z,67.07
2023-03-29T04:51:55.976Z,66.92
2023-03-29T04:54:22.734Z,66.08
2023-03-29T04:56:49.781Z,65.21
2023-03-29T04:59:16.464Z,64.44
2023-03-29T05:01:43.191Z,63.60
2023-03-29T05:04:12.547Z,64.19
2023-03-29T05:06:40.106Z,63.03
2023-03-29T05:09:07.345Z,64.32
2023-03-29T05:11:34.053Z,63.22
2023-03-29T05:14:03.272Z,63.37
2023-03-29T05:16:30.312Z,61.58
2023-03-29T05:18:57.518Z,61.07
2023-03-29T05:21:26.213Z,60.91
2023-03-29T05:23:53.296Z,59.85
2023-03-29T05:26:20.275Z,59.73
2023-03-29T05:28:47.059Z,59.36
2023-03-29T05:31:16.675Z,59.24
2023-03-29T05:33:43.999Z,58.93
2023-03-29T05:36:13.641Z,57.66
2023-03-29T05:38:41.158Z,57.38
2023-03-29T05:41:08.306Z,57.20
2023-03-29T05:43:35.072Z,56.19
2023-03-29T05:46:01.798Z,55.25
2023-03-29T05:48:28.840Z,55.56
2023-03-29T05:50:56.365Z,55.68
2023-03-29T05:53:24.012Z,54.10
2023-03-29T05:55:51.430Z,54.13
2023-03-29T05:58:20.281Z,54.01
2023-03-29T06:00:49.582Z,54.10
2023-03-29T06:03:21.548Z,54.66
2023-03-29T06:05:50.021Z,54.17
2023-03-29T06:08:16.861Z,54.82
2023-03-29T06:10:43.818Z,54.52
2023-03-29T06:13:10.947Z,54.56
2023-03-29T06:15:37.963Z,54.92
2023-03-29T06:18:04.741Z,56.15
2023-03-29T06:20:31.775Z,58.13
2023-03-29T06:22:58.469Z,61.15
2023-03-29T06:25:25.138Z,64.81
2023-03-29T06:27:52.240Z,66.26
2023-03-29T06:30:19.349Z,69.33
2023-03-29T06:32:46.390Z,67.55
2023-03-29T06:35:13.137Z,67.25
2023-03-29T06:37:41.241Z,66.71
2023-03-29T06:40:09.434Z,65.59
2023-03-29T06:42:36.088Z,63.21
2023-03-29T06:45:04.085Z,62.94
2023-03-29T06:47:31.672Z,63.13
2023-03-29T06:49:58.350Z,63.10
2023-03-29T06:52:25.021Z,61.92
2023-03-29T06:54:51.822Z,63.69
2023-03-29T06:57:18.834Z,63.47
2023-03-29T06:59:46.564Z,62.31
2023-03-29T07:02:13.272Z,59.44
2023-03-29T07:04:41.803Z,59.45
2023-03-29T07:07:19.730Z,59.04
2023-03-29T07:09:54.164Z,60.66
2023-03-29T07:12:22.581Z,61.92
2023-03-29T07:14:49.270Z,63.77
2023-03-29T07:17:16.724Z,64.79
2023-03-29T07:19:43.537Z,65.26
2023-03-29T07:22:11.268Z,66.32
2023-03-29T07:24:38.022Z,66.89
2023-03-29T07:27:05.299Z,67.25
2023-03-29T07:29:32.301Z,66.22
2023-03-29T07:31:59.093Z,65.78
2023-03-29T07:34:25.902Z,66.47
2023-03-29T07:36:52.611Z,67.18
2023-03-29T07:39:19.254Z,68.13
2023-03-29T07:41:46.008Z,65.92
2023-03-29T07:44:12.604Z,63.99
2023-03-29T07:46:39.254Z,62.41
2023-03-29T07:49:07.520Z,61.61
2023-03-29T07:51:36.623Z,61.73
2023-03-29T07:54:03.290Z,60.91
2023-03-29T07:56:30.246Z,59.77
2023-03-29T07:58:57.250Z,59.43
2023-03-29T08:01:24.848Z,60.56
2023-03-29T08:03:52.339Z,61.35
2023-03-29T08:06:19.042Z,61.95
2023-03-29T08:08:46.261Z,59.96
2023-03-29T08:11:12.920Z,59.81
2023-03-29T08:13:39.522Z,59.35
2023-03-29T08:16:06.782Z,57.94
2023-03-29T08:18:34.825Z,56.56
2023-03-29T08:21:02.222Z,57.52
2023-03-29T08:23:30.201Z,55.62
2023-03-29T08:25:56.945Z,56.81
2023-03-29T08:28:24.376Z,55.05
2023-03-29T08:30:51.170Z,54.69
2023-03-29T08:33:18.030Z,54.98
2023-03-29T08:35:44.864Z,55.56
2023-03-29T08:38:12.581Z,54.70
2023-03-29T08:40:39.261Z,54.40
2023-03-29T08:43:28.582Z,52.78
2023-03-29T08:46:28.972Z,51.50
2023-03-29T08:49:02.650Z,51.52
2023-03-29T08:51:43.128Z,51.24
2023-03-29T08:54:15.794Z,51.49
2023-03-29T08:56:43.431Z,51.29
2023-03-29T08:59:26.677Z,52.38
2023-03-29T09:01:54.427Z,52.72
2023-03-29T09:04:25.388Z,51.22
2023-03-29T09:06:52.424Z,51.44
2023-03-29T09:09:20.965Z,49.63
2023-03-29T09:12:05.159Z,46.55
2023-03-29T09:14:47.372Z,45.31
2023-03-29T09:17:42.909Z,43.99
2023-03-29T09:20:32.245Z,45.63
2023-03-29T09:23:18.136Z,43.73
2023-03-29T09:26:12.537Z,44.30
2023-03-29T09:29:09.548Z,44.95
2023-03-29T09:31:39.041Z,42.87
2023-03-29T09:34:15.704Z,41.31
2023-03-29T09:36:48.662Z,41.07
2023-03-29T09:39:16.522Z,42.38
2023-03-29T09:42:08.188Z,43.49
2023-03-29T09:44:40.862Z,41.06
2023-03-29T09:47:19.291Z,42.01
2023-03-29T09:49:47.930Z,40.42
2023-03-29T09:52:15.331Z,41.42
2023-03-29T09:54:42.172Z,43.03
2023-03-29T09:57:16.537Z,40.37
2023-03-29T09:59:44.053Z,40.28
2023-03-29T10:02:12.864Z,41.21
2023-03-29T10:04:42.082Z,38.94
2023-03-29T10:07:20.767Z,42.90
2023-03-29T10:09:56.192Z,38.69
2023-03-29T10:12:23.120Z,39.79
2023-03-29T10:14:52.196Z,39.60
2023-03-29T10:17:25.391Z,40.20
2023-03-29T10:19:55.689Z,37.93
2023-03-29T10:22:27.298Z,40.46
2023-03-29T10:24:54.948Z,40.38
2023-03-29T10:27:27.075Z,38.69
2023-03-29T10:29:54.324Z,37.92
2023-03-29T10:32:34.321Z,37.25
2023-03-29T10:35:15.783Z,35.62
2023-03-29T10:37:43.175Z,37.96
2023-03-29T10:40:22.513Z,37.53
2023-03-29T10:42:50.304Z,37.38
2023-03-29T10:45:31.872Z,38.58
2023-03-29T10:47:58.802Z,38.50
2023-03-29T10:50:27.072Z,37.41
2023-03-29T10:52:53.880Z,35.69
2023-03-29T10:55:20.607Z,37.92
2023-03-29T10:58:16.323Z,38.84
2023-03-29T11:00:51.189Z,36.44
2023-03-29T11:03:40.665Z,34.10
2023-03-29T11:06:30.408Z,35.25
2023-03-29T11:09:02.052Z,36.94
2023-03-29T11:11:31.704Z,36.43
2023-03-29T11:14:55.642Z,36.65
2023-03-29T11:17:57.328Z,37.66
2023-03-29T11:20:45.843Z,35.59
2023-03-29T11:23:28.539Z,32.52
2023-03-29T11:26:14.087Z,33.85
2023-03-29T11:28:42.322Z,33.97
2023-03-29T11:31:44.288Z,34.15
2023-03-29T11:34:17.618Z,32.44
2023-03-29T11:36:51.769Z,35.89
2023-03-29T11:39:54.860Z,35.09
2023-03-29T11:42:24.255Z,34.59
2023-03-29T11:47:23.125Z,35.01
2023-03-29T11:50:14.675Z,33.97
2023-03-29T11:52:44.861Z,34.85
2023-03-29T11:55:18.962Z,35.62
2023-03-29T11:57:45.532Z,35.47
2023-03-29T12:00:19.703Z,33.38
2023-03-29T12:02:47.837Z,35.29
2023-03-29T12:05:28.073Z,35.50
2023-03-29T12:08:00.471Z,35.10
2023-03-29T12:10:31.314Z,35.24
2023-03-29T12:13:03.340Z,35.53
2023-03-29T12:15:32.087Z,35.99
2023-03-29T12:18:06.972Z,36.31
2023-03-29T12:20:38.945Z,35.82
2023-03-29T12:23:06.824Z,38.04
2023-03-29T12:25:38.236Z,34.14
2023-03-29T12:28:21.176Z,34.01
2023-03-29T12:31:15.044Z,33.45
2023-03-29T12:34:07.764Z,32.23
2023-03-29T12:36:45.321Z,29.60
2023-03-29T12:39:15.336Z,29.83
2023-03-29T12:41:44.977Z,29.75
2023-03-29T12:44:13.559Z,29.88
2023-03-29T12:46:40.235Z,32.02
2023-03-29T12:49:31.897Z,28.06
2023-03-29T12:51:59.289Z,31.99
2023-03-29T12:54:28.430Z,29.63
2023-03-29T12:57:00.640Z,32.21
2023-03-29T12:59:38.414Z,30.65
2023-03-29T13:02:14.149Z,30.51
2023-03-29T13:04:43.914Z,29.01
2023-03-29T13:07:32.077Z,27.14
2023-03-29T13:10:03.636Z,27.46
2023-03-29T13:12:43.188Z,29.17
2023-03-29T13:15:17.145Z,29.05
2023-03-29T13:18:11.701Z,28.21
2023-03-29T13:21:15.930Z,31.10
2023-03-29T13:23:45.884Z,30.73
2023-03-29T13:26:31.553Z,30.28
2023-03-29T13:29:20.392Z,28.13
2023-03-29T13:31:58.044Z,27.84
2023-03-29T13:34:43.240Z,28.34
2023-03-29T13:37:22.765Z,29.77
2023-03-29T13:39:51.760Z,26.84
2023-03-29T13:42:31.361Z,29.05
2023-03-29T13:45:23.555Z,28.42
2023-03-29T13:48:02.641Z,28.70
2023-03-29T13:50:40.703Z,27.36
2023-03-29T13:53:26.124Z,27.91
2023-03-29T13:55:53.321Z,28.72
2023-03-29T13:58:43.868Z,29.31
2023-03-29T14:01:29.261Z,30.17
2023-03-29T14:03:56.093Z,28.27
2023-03-29T14:06:27.582Z,28.50
2023-03-29T14:08:54.256Z,28.39
2023-03-29T14:11:28.547Z,27.71
2023-03-29T14:13:57.132Z,26.58
2023-03-29T14:16:23.987Z,26.41
2023-03-29T14:18:52.634Z,25.25
2023-03-29T14:21:19.664Z,26.81
2023-03-29T14:23:47.498Z,25.27
2023-03-29T14:26:22.146Z,26.70
2023-03-29T14:28:52.778Z,26.33
2023-03-29T14:31:20.444Z,25.20
2023-03-29T14:33:51.984Z,25.15
2023-03-29T14:36:18.780Z,24.38
2023-03-29T14:38:48.623Z,27.81
2023-03-29T14:41:15.357Z,26.38
2023-03-29T14:43:42.043Z,28.27
2023-03-29T14:46:08.711Z,26.44
2023-03-29T14:48:36.046Z,28.39
2023-03-29T14:51:02.775Z,28.26
2023-03-29T14:53:31.889Z,28.14
2023-03-29T14:55:58.607Z,28.53
2023-03-29T14:58:31.766Z,26.66
2023-03-29T15:00:58.902Z,28.27
2023-03-29T15:03:29.299Z,28.14
2023-03-29T15:06:01.283Z,27.76
2023-03-29T15:08:38.214Z,27.85
2023-03-29T15:11:34.861Z,27.35
2023-03-29T15:14:09.091Z,27.94
2023-03-29T15:16:42.014Z,26.11
2023-03-29T15:19:17.766Z,26.92
2023-03-29T15:21:44.541Z,27.74
2023-03-29T15:24:19.440Z,27.88
2023-03-29T15:26:46.201Z,26.93
2023-03-29T15:29:14.736Z,27.84
2023-03-29T15:31:41.881Z,27.22
2023-03-29T15:34:12.112Z,27.15
2023-03-29T15:36:48.271Z,27.61
2023-03-29T15:39:17.071Z,27.82
2023-03-29T15:41:44.208Z,27.79
2023-03-29T15:44:11.038Z,28.74
2023-03-29T15:46:37.934Z,28.21
2023-03-29T15:49:05.160Z,28.46
2023-03-29T15:51:31.994Z,29.86
2023-03-29T15:53:58.678Z,31.65
2023-03-29T15:56:26.701Z,30.44
2023-03-29T15:58:53.415Z,31.82
2023-03-29T16:01:39.669Z,32.86
2023-03-29T16:04:07.980Z,32.33
2023-03-29T16:06:34.803Z,32.84
2023-03-29T16:09:01.615Z,33.41
2023-03-29T16:11:28.474Z,34.27
2023-03-29T16:13:55.904Z,34.51
2023-03-29T16:16:22.651Z,34.05
2023-03-29T16:18:49.565Z,33.80
2023-03-29T16:21:20.829Z,33.83
2023-03-29T16:23:47.553Z,34.59
2023-03-29T16:26:14.968Z,33.77
2023-03-29T16:28:41.760Z,33.67
2023-03-29T16:31:11.185Z,34.21
2023-03-29T16:33:38.264Z,34.78
2023-03-29T16:36:05.617Z,36.35
2023-03-29T16:38:33.736Z,35.44
2023-03-29T16:41:00.634Z,35.59
2023-03-29T16:43:27.749Z,35.57
2023-03-29T16:45:54.578Z,35.71
2023-03-29T16:48:21.301Z,35.38
2023-03-29T16:50:51.114Z,35.37
2023-03-29T16:53:21.717Z,36.48
2023-03-29T16:55:49.317Z,36.42
2023-03-29T16:58:16.278Z,37.19
2023-03-29T17:00:45.683Z,37.83
2023-03-29T17:03:14.107Z,36.75
2023-03-29T17:05:41.733Z,36.40
2023-03-29T17:08:10.136Z,36.55
2023-03-29T17:10:39.621Z,37.20
2023-03-29T17:13:06.843Z,37.20
2023-03-29T17:15:33.876Z,38.03
2023-03-29T17:18:00.618Z,38.06
2023-03-29T17:20:27.423Z,38.46
2023-03-29T17:22:56.066Z,38.64
2023-03-29T17:25:23.285Z,37.69
2023-03-29T17:27:50.118Z,38.58
2023-03-29T17:30:17.034Z,39.07
2023-03-29T17:32:44.118Z,38.13
2023-03-29T17:35:10.826Z,37.79
2023-03-29T17:37:37.551Z,39.56
2023-03-29T17:40:12.566Z,38.81
2023-03-29T17:42:40.319Z,39.15
2023-03-29T17:45:08.111Z,39.45
2023-03-29T17:47:34.885Z,38.60
2023-03-29T17:50:01.461Z,38.42
2023-03-29T17:52:28.142Z,39.29
2023-03-29T17:54:54.853Z,39.47
2023-03-29T17:57:21.633Z,39.60
2023-03-29T17:59:48.251Z,39.87
2023-03-29T18:02:19.386Z,38.96
2023-03-29T18:04:46.168Z,39.85
2023-03-29T18:07:12.972Z,40.82
2023-03-29T18:09:39.855Z,41.38
2023-03-29T18:12:06.940Z,41.68
2023-03-29T18:14:34.011Z,40.55
2023-03-29T18:17:00.849Z,40.66
2023-03-29T18:19:27.706Z,41.16
2023-03-29T18:21:54.457Z,40.32
2023-03-29T18:24:21.305Z,40.40
2023-03-29T18:26:48.062Z,41.61
2023-03-29T18:29:15.060Z,41.43
2023-03-29T18:31:42.839Z,41.73
2023-03-29T18:34:09.672Z,40.88
2023-03-29T18:36:37.052Z,42.26
2023-03-29T18:39:06.705Z,42.89
2023-03-29T18:41:34.094Z,41.87
2023-03-29T18:44:00.981Z,43.05
2023-03-29T18:46:30.594Z,41.27
2023-03-29T18:49:01.208Z,41.28
2023-03-29T18:51:31.292Z,41.68
2023-03-29T18:53:58.041Z,42.35
2023-03-29T18:56:24.719Z,42.74
2023-03-29T18:58:51.817Z,42.37
2023-03-29T19:01:18.562Z,43.15
2023-03-29T19:03:45.454Z,43.06
2023-03-29T19:06:12.171Z,42.16
2023-03-29T19:08:41.208Z,42.61
2023-03-29T19:11:09.580Z,42.63
2023-03-29T19:13:36.445Z,42.40
2023-03-29T19:16:03.844Z,43.64
2023-03-29T19:18:30.994Z,43.13
2023-03-29T19:20:57.700Z,42.19
2023-03-29T19:23:28.385Z,42.52
2023-03-29T19:25:56.314Z,41.54
2023-03-29T19:28:23.304Z,42.56
2023-03-29T19:30:50.097Z,44.93
2023-03-29T19:33:17.111Z,43.39
2023-03-29T19:35:43.995Z,43.23
2023-03-29T19:38:10.955Z,44.59
2023-03-29T19:40:37.616Z,43.83
2023-03-29T19:43:04.463Z,43.70
2023-03-29T19:45:31.220Z,44.18
2023-03-29T19:47:58.349Z,44.10
2023-03-29T19:50:26.303Z,43.77
2023-03-29T19:52:57.125Z,43.11
2023-03-29T19:55:23.825Z,42.91
2023-03-29T19:57:50.513Z,43.01
2023-03-29T20:00:18.773Z,43.51
2023-03-29T20:02:45.491Z,43.68
2023-03-29T20:05:12.560Z,42.92
2023-03-29T20:07:39.276Z,42.90
2023-03-29T20:10:06.383Z,43.16
2023-03-29T20:12:33.123Z,43.28
2023-03-29T20:14:59.797Z,43.24
2023-03-29T20:17:26.961Z,43.60
2023-03-29T20:19:53.934Z,43.68
2023-03-29T20:22:20.637Z,44.57
2023-03-29T20:24:47.295Z,44.08
2023-03-29T20:27:15.795Z,44.36
2023-03-29T20:29:42.819Z,44.84
2023-03-29T20:32:09.462Z,44.31
2023-03-29T20:34:36.264Z,44.27
2023-03-29T20:37:03.693Z,44.42
2023-03-29T20:39:31.414Z,45.29
2023-03-29T20:41:59.071Z,44.88
2023-03-29T20:44:28.923Z,45.15
2023-03-29T20:47:06.749Z,45.01
2023-03-29T20:49:37.509Z,45.76
2023-03-29T20:52:10.658Z,45.58
2023-03-29T20:54:37.528Z,45.41
2023-03-29T20:57:07.958Z,46.23
2023-03-29T20:59:34.781Z,46.14
2023-03-29T21:02:02.561Z,46.38
2023-03-29T21:04:29.263Z,46.37
2023-03-29T21:06:57.105Z,46.52
2023-03-29T21:09:23.844Z,46.32
2023-03-29T21:11:50.836Z,45.98
2023-03-29T21:14:19.617Z,46.45
2023-03-29T21:16:47.421Z,46.12
2023-03-29T21:19:14.983Z,46.35
2023-03-29T21:21:42.733Z,47.08
2023-03-29T21:24:10.755Z,46.71
2023-03-29T21:26:37.431Z,46.66
2023-03-29T21:29:04.099Z,46.56
2023-03-29T21:31:30.886Z,46.90
2023-03-29T21:33:57.890Z,46.90
2023-03-29T21:36:24.556Z,48.02
2023-03-29T21:38:51.548Z,48.40
2023-03-29T21:41:18.429Z,49.09
2023-03-29T21:43:45.109Z,49.13
2023-03-29T21:46:11.961Z,49.24
2023-03-29T21:48:38.753Z,50.03
2023-03-29T21:51:05.917Z,49.29
2023-03-29T21:53:32.824Z,49.92
2023-03-29T21:55:59.419Z,49.75
2023-03-29T21:58:26.262Z,49.51
2023-03-29T22:00:53.188Z,49.69
2023-03-29T22:03:19.877Z,49.55
2023-03-29T22:06:00.613Z,49.57
2023-03-29T22:08:27.299Z,49.21
2023-03-29T22:10:57.818Z,49.71
2023-03-29T22:13:24.910Z,49.93
2023-03-29T22:15:59.141Z,50.09
2023-03-29T22:18:28.045Z,50.15
2023-03-29T22:20:54.775Z,49.97
2023-03-29T22:23:21.492Z,50.36
2023-03-29T22:25:48.356Z,50.06
2023-03-29T22:28:15.005Z,50.28
2023-03-29T22:30:41.938Z,49.98
2023-03-29T22:33:08.662Z,50.73
2023-03-29T22:35:35.645Z,51.26
2023-03-29T22:38:02.268Z,51.01
2023-03-29T22:40:30.836Z,50.96
2023-03-29T22:42:57.499Z,51.25
2023-03-29T22:45:24.131Z,51.29
2023-03-29T22:47:50.972Z,51.57
2023-03-29T22:50:17.730Z,51.70
2023-03-29T22:52:44.368Z,52.25
2023-03-29T22:55:11.232Z,51.92
2023-03-29T22:57:37.967Z,51.44
2023-03-29T23:00:09.117Z,51.42
2023-03-29T23:02:36.863Z,51.65
2023-03-29T23:05:03.605Z,51.47
2023-03-29T23:07:30.325Z,51.88
2023-03-29T23:09:57.008Z,51.66
2023-03-29T23:12:24.249Z,51.35
2023-03-29T23:14:53.121Z,50.88
2023-03-29T23:17:20.558Z,51.53
2023-03-29T23:19:47.926Z,50.95
2023-03-29T23:22:14.525Z,51.17
2023-03-29T23:24:43.441Z,51.21
2023-03-29T23:27:10.050Z,51.13
2023-03-29T23:29:38.160Z,51.37
2023-03-29T23:32:04.872Z,52.16
2023-03-29T23:34:31.613Z,51.84
2023-03-29T23:36:58.658Z,52.21
2023-03-29T23:39:25.416Z,52.49
2023-03-29T23:41:52.378Z,51.37
2023-03-29T23:44:19.026Z,51.49
2023-03-29T23:46:45.783Z,51.88
2023-03-29T23:49:12.570Z,52.07
2023-03-29T23:51:39.324Z,51.91
2023-03-29T23:54:06.341Z,52.44
2023-03-29T23:56:33.371Z,52.65
2023-03-29T23:59:00.015Z,53.40
